sensor_id;sensor_type;location;lat;lon;timestamp;pressure;altitude;pressure_sealevel;temperature;humidity
71476;BME280;59286;59.274;17.974;2023-03-19T00:00:11;100951.81;;;3.44;100.00
71476;BME280;59286;59.274;17.974;2023-03-19T00:02:37;100947.88;;;3.42;100.00
71476;BME280;59286;59.274;17.974;2023-03-19T00:05:03;100948.06;;;3.35;100.00
71476;BME280;59286;59.274;17.974;2023-03-19T00:07:29;100951.19;;;3.37;100.00
71476;BME280;59286;59.274;17.974;2023-03-19T00:09:55;100938.16;;;3.32;100.00
71476;BME280;59286;59.274;17.974;2023-03-19T00:12:20;100947.28;;;3.35;100.00
71476;BME280;59286;59.274;17.974;2023-03-19T00:14:45;100963.59;;;3.35;100.00
71476;BME280;59286;59.274;17.974;2023-03-19T00:17:11;100947.81;;;3.37;100.00
71476;BME280;59286;59.274;17.974;2023-03-19T00:19:36;100955.91;;;3.40;100.00
71476;BME280;59286;59.274;17.974;2023-03-19T00:22:02;100953.25;;;3.35;100.00
71476;BME280;59286;59.274;17.974;2023-03-19T00:24:27;100959.19;;;3.36;100.00
71476;BME280;59286;59.274;17.974;2023-03-19T00:26:53;100944.13;;;3.33;100.00
71476;BME280;59286;59.274;17.974;2023-03-19T00:29:18;100954.00;;;3.36;100.00
71476;BME280;59286;59.274;17.974;2023-03-19T00:31:44;100960.59;;;3.43;100.00
71476;BME280;59286;59.274;17.974;2023-03-19T00:34:10;100959.66;;;3.49;100.00
71476;BME280;59286;59.274;17.974;2023-03-19T00:36:37;100961.53;;;3.54;100.00
71476;BME280;59286;59.274;17.974;2023-03-19T00:39:03;100964.13;;;3.54;100.00
71476;BME280;59286;59.274;17.974;2023-03-19T00:41:29;100966.78;;;3.59;100.00
71476;BME280;59286;59.274;17.974;2023-03-19T00:43:55;100967.88;;;3.63;100.00
71476;BME280;59286;59.274;17.974;2023-03-19T00:46:22;100964.25;;;3.64;100.00
71476;BME280;59286;59.274;17.974;2023-03-19T00:48:47;100963.53;;;3.68;100.00
71476;BME280;59286;59.274;17.974;2023-03-19T00:51:13;100960.34;;;3.61;100.00
71476;BME280;59286;59.274;17.974;2023-03-19T00:53:40;100971.06;;;3.70;100.00
71476;BME280;59286;59.274;17.974;2023-03-19T00:56:07;100973.66;;;3.70;100.00
71476;BME280;59286;59.274;17.974;2023-03-19T00:58:33;100979.16;;;3.73;100.00
71476;BME280;59286;59.274;17.974;2023-03-19T01:00:58;100979.88;;;3.69;100.00
71476;BME280;59286;59.274;17.974;2023-03-19T01:03:23;100972.81;;;3.64;100.00
71476;BME280;59286;59.274;17.974;2023-03-19T01:05:49;100973.91;;;3.68;100.00
71476;BME280;59286;59.274;17.974;2023-03-19T01:08:16;100973.38;;;3.66;100.00
71476;BME280;59286;59.274;17.974;2023-03-19T01:10:42;100984.28;;;3.68;100.00
71476;BME280;59286;59.274;17.974;2023-03-19T01:13:08;100981.94;;;3.67;100.00
71476;BME280;59286;59.274;17.974;2023-03-19T01:15:37;100972.03;;;3.64;100.00
71476;BME280;59286;59.274;17.974;2023-03-19T01:18:03;100981.16;;;3.66;100.00
71476;BME280;59286;59.274;17.974;2023-03-19T01:20:29;100980.66;;;3.69;100.00
71476;BME280;59286;59.274;17.974;2023-03-19T01:22:54;100987.41;;;3.70;100.00
71476;BME280;59286;59.274;17.974;2023-03-19T01:25:20;100988.97;;;3.71;100.00
71476;BME280;59286;59.274;17.974;2023-03-19T01:27:46;100983.88;;;3.76;100.00
71476;BME280;59286;59.274;17.974;2023-03-19T01:30:11;100978.16;;;3.74;100.00
71476;BME280;59286;59.274;17.974;2023-03-19T01:32:37;100987.72;;;3.74;100.00
71476;BME280;59286;59.274;17.974;2023-03-19T01:35:02;100983.78;;;3.71;100.00
71476;BME280;59286;59.274;17.974;2023-03-19T01:37:27;100991.56;;;3.71;100.00
71476;BME280;59286;59.274;17.974;2023-03-19T01:39:53;100997.31;;;3.73;100.00
71476;BME280;59286;59.274;17.974;2023-03-19T01:42:18;100986.31;;;3.66;100.00
71476;BME280;59286;59.274;17.974;2023-03-19T01:44:43;100993.63;;;3.69;100.00
71476;BME280;59286;59.274;17.974;2023-03-19T01:47:17;100996.59;;;3.78;100.00
71476;BME280;59286;59.274;17.974;2023-03-19T01:49:46;100997.44;;;3.83;100.00
71476;BME280;59286;59.274;17.974;2023-03-19T01:52:16;100996.34;;;3.79;100.00
71476;BME280;59286;59.274;17.974;2023-03-19T01:54:42;100997.53;;;3.72;100.00
71476;BME280;59286;59.274;17.974;2023-03-19T01:57:10;100998.25;;;3.67;100.00
71476;BME280;59286;59.274;17.974;2023-03-19T01:59:41;100999.84;;;3.68;100.00
71476;BME280;59286;59.274;17.974;2023-03-19T02:02:18;101006.03;;;3.67;100.00
71476;BME280;59286;59.274;17.974;2023-03-19T02:04:48;101009.34;;;3.63;100.00
71476;BME280;59286;59.274;17.974;2023-03-19T02:07:15;101003.31;;;3.57;100.00
71476;BME280;59286;59.274;17.974;2023-03-19T02:09:41;101006.59;;;3.53;100.00
71476;BME280;59286;59.274;17.974;2023-03-19T02:12:08;101016.88;;;3.64;100.00
71476;BME280;59286;59.274;17.974;2023-03-19T02:14:33;101009.91;;;3.65;100.00
71476;BME280;59286;59.274;17.974;2023-03-19T02:16:59;101018.97;;;3.67;100.00
71476;BME280;59286;59.274;17.974;2023-03-19T02:22:21;101010.19;;;3.68;100.00
71476;BME280;59286;59.274;17.974;2023-03-19T02:24:58;101019.63;;;3.74;100.00
71476;BME280;59286;59.274;17.974;2023-03-19T02:27:26;101012.78;;;3.68;100.00
71476;BME280;59286;59.274;17.974;2023-03-19T02:29:52;101019.78;;;3.68;100.00
71476;BME280;59286;59.274;17.974;2023-03-19T02:32:17;101021.13;;;3.70;100.00
71476;BME280;59286;59.274;17.974;2023-03-19T02:34:43;101018.81;;;3.74;100.00
71476;BME280;59286;59.274;17.974;2023-03-19T02:37:16;101019.47;;;3.64;100.00
71476;BME280;59286;59.274;17.974;2023-03-19T02:42:17;101028.34;;;3.68;100.00
71476;BME280;59286;59.274;17.974;2023-03-19T02:44:43;101028.09;;;3.70;100.00
71476;BME280;59286;59.274;17.974;2023-03-19T02:47:10;101024.97;;;3.68;100.00
71476;BME280;59286;59.274;17.974;2023-03-19T02:49:35;101028.59;;;3.67;100.00
71476;BME280;59286;59.274;17.974;2023-03-19T02:52:01;101040.81;;;3.71;100.00
71476;BME280;59286;59.274;17.974;2023-03-19T02:54:26;101050.09;;;3.67;100.00
71476;BME280;59286;59.274;17.974;2023-03-19T02:56:51;101036.06;;;3.63;100.00
71476;BME280;59286;59.274;17.974;2023-03-19T02:59:17;101037.38;;;3.66;100.00
71476;BME280;59286;59.274;17.974;2023-03-19T03:01:43;101050.09;;;3.67;100.00
71476;BME280;59286;59.274;17.974;2023-03-19T03:04:08;101058.84;;;3.61;100.00
71476;BME280;59286;59.274;17.974;2023-03-19T03:06:33;101051.81;;;3.62;100.00
71476;BME280;59286;59.274;17.974;2023-03-19T03:08:59;101057.78;;;3.62;100.00
71476;BME280;59286;59.274;17.974;2023-03-19T03:11:24;101058.34;;;3.64;100.00
71476;BME280;59286;59.274;17.974;2023-03-19T03:13:50;101058.59;;;3.63;100.00
71476;BME280;59286;59.274;17.974;2023-03-19T03:16:15;101064.56;;;3.63;100.00
71476;BME280;59286;59.274;17.974;2023-03-19T03:18:41;101062.97;;;3.62;100.00
71476;BME280;59286;59.274;17.974;2023-03-19T03:21:06;101060.78;;;3.54;100.00
71476;BME280;59286;59.274;17.974;2023-03-19T03:23:32;101071.25;;;3.59;100.00
71476;BME280;59286;59.274;17.974;2023-03-19T03:25:57;101066.19;;;3.53;100.00
71476;BME280;59286;59.274;17.974;2023-03-19T03:28:23;101068.03;;;3.52;100.00
71476;BME280;59286;59.274;17.974;2023-03-19T03:30:49;101073.22;;;3.52;100.00
71476;BME280;59286;59.274;17.974;2023-03-19T03:33:14;101066.91;;;3.48;100.00
71476;BME280;59286;59.274;17.974;2023-03-19T03:35:41;101069.59;;;3.53;100.00
71476;BME280;59286;59.274;17.974;2023-03-19T03:38:07;101076.31;;;3.54;100.00
71476;BME280;59286;59.274;17.974;2023-03-19T03:40:32;101072.72;;;3.55;100.00
71476;BME280;59286;59.274;17.974;2023-03-19T03:42:58;101075.88;;;3.57;100.00
71476;BME280;59286;59.274;17.974;2023-03-19T03:45:23;101075.38;;;3.60;100.00
71476;BME280;59286;59.274;17.974;2023-03-19T03:47:49;101076.50;;;3.64;100.00
71476;BME280;59286;59.274;17.974;2023-03-19T03:50:15;101080.19;;;3.68;100.00
71476;BME280;59286;59.274;17.974;2023-03-19T03:52:41;101074.75;;;3.70;100.00
71476;BME280;59286;59.274;17.974;2023-03-19T03:55:07;101083.88;;;3.72;100.00
71476;BME280;59286;59.274;17.974;2023-03-19T03:57:33;101082.06;;;3.73;100.00
71476;BME280;59286;59.274;17.974;2023-03-19T03:59:58;101085.75;;;3.77;100.00
71476;BME280;59286;59.274;17.974;2023-03-19T04:02:24;101091.22;;;3.80;100.00
71476;BME280;59286;59.274;17.974;2023-03-19T04:04:50;101084.75;;;3.78;100.00
71476;BME280;59286;59.274;17.974;2023-03-19T04:07:16;101081.44;;;3.66;100.00
71476;BME280;59286;59.274;17.974;2023-03-19T04:09:41;101081.59;;;3.59;100.00
71476;BME280;59286;59.274;17.974;2023-03-19T04:12:07;101091.72;;;3.61;100.00
71476;BME280;59286;59.274;17.974;2023-03-19T04:14:32;101087.66;;;3.48;100.00
71476;BME280;59286;59.274;17.974;2023-03-19T04:16:58;101087.72;;;3.53;100.00
71476;BME280;59286;59.274;17.974;2023-03-19T04:19:23;101082.00;;;3.51;100.00
71476;BME280;59286;59.274;17.974;2023-03-19T04:21:48;101085.13;;;3.53;100.00
71476;BME280;59286;59.274;17.974;2023-03-19T04:24:14;101080.44;;;3.50;100.00
71476;BME280;59286;59.274;17.974;2023-03-19T04:26:39;101086.69;;;3.54;100.00
71476;BME280;59286;59.274;17.974;2023-03-19T04:29:05;101087.47;;;3.55;100.00
71476;BME280;59286;59.274;17.974;2023-03-19T04:31:33;101084.56;;;3.51;100.00
71476;BME280;59286;59.274;17.974;2023-03-19T04:33:58;101092.84;;;3.48;100.00
71476;BME280;59286;59.274;17.974;2023-03-19T04:36:24;101086.06;;;3.47;100.00
71476;BME280;59286;59.274;17.974;2023-03-19T04:38:50;101081.38;;;3.44;100.00
71476;BME280;59286;59.274;17.974;2023-03-19T04:41:15;101082.28;;;3.38;100.00
71476;BME280;59286;59.274;17.974;2023-03-19T04:43:40;101084.94;;;3.27;100.00
71476;BME280;59286;59.274;17.974;2023-03-19T04:46:06;101078.19;;;3.09;100.00
71476;BME280;59286;59.274;17.974;2023-03-19T04:48:34;101083.38;;;3.09;100.00
71476;BME280;59286;59.274;17.974;2023-03-19T04:51:01;101094.63;;;3.03;100.00
71476;BME280;59286;59.274;17.974;2023-03-19T04:53:27;101083.97;;;3.00;100.00
71476;BME280;59286;59.274;17.974;2023-03-19T04:55:53;101101.84;;;3.01;100.00
71476;BME280;59286;59.274;17.974;2023-03-19T04:58:18;101094.56;;;2.98;100.00
71476;BME280;59286;59.274;17.974;2023-03-19T05:00:43;101094.16;;;3.06;100.00
71476;BME280;59286;59.274;17.974;2023-03-19T05:03:12;101097.63;;;3.12;100.00
71476;BME280;59286;59.274;17.974;2023-03-19T05:05:37;101089.78;;;3.07;100.00
71476;BME280;59286;59.274;17.974;2023-03-19T05:08:02;101087.66;;;3.04;100.00
71476;BME280;59286;59.274;17.974;2023-03-19T05:10:28;101089.00;;;3.06;100.00
71476;BME280;59286;59.274;17.974;2023-03-19T05:12:53;101086.63;;;3.05;100.00
71476;BME280;59286;59.274;17.974;2023-03-19T05:15:18;101105.09;;;3.08;100.00
71476;BME280;59286;59.274;17.974;2023-03-19T05:17:44;101095.84;;;3.12;100.00
71476;BME280;59286;59.274;17.974;2023-03-19T05:20:09;101104.06;;;3.09;100.00
71476;BME280;59286;59.274;17.974;2023-03-19T05:22:36;101110.66;;;3.00;100.00
71476;BME280;59286;59.274;17.974;2023-03-19T05:25:02;101115.16;;;2.93;100.00
71476;BME280;59286;59.274;17.974;2023-03-19T05:27:28;101122.00;;;2.99;100.00
71476;BME280;59286;59.274;17.974;2023-03-19T05:29:53;101127.75;;;3.01;100.00
71476;BME280;59286;59.274;17.974;2023-03-19T05:32:19;101129.19;;;3.09;100.00
71476;BME280;59286;59.274;17.974;2023-03-19T05:34:45;101121.81;;;3.17;100.00
71476;BME280;59286;59.274;17.974;2023-03-19T05:37:10;101120.44;;;3.26;100.00
71476;BME280;59286;59.274;17.974;2023-03-19T05:39:36;101124.22;;;3.35;100.00
71476;BME280;59286;59.274;17.974;2023-03-19T05:42:01;101121.16;;;3.38;100.00
71476;BME280;59286;59.274;17.974;2023-03-19T05:44:27;101130.41;;;3.34;100.00
71476;BME280;59286;59.274;17.974;2023-03-19T05:46:52;101130.81;;;3.26;100.00
71476;BME280;59286;59.274;17.974;2023-03-19T05:49:17;101119.56;;;3.21;100.00
71476;BME280;59286;59.274;17.974;2023-03-19T05:51:43;101131.72;;;3.20;100.00
71476;BME280;59286;59.274;17.974;2023-03-19T05:54:08;101144.75;;;3.25;100.00
71476;BME280;59286;59.274;17.974;2023-03-19T05:56:33;101155.59;;;3.22;100.00
71476;BME280;59286;59.274;17.974;2023-03-19T05:58:59;101149.94;;;3.25;100.00
71476;BME280;59286;59.274;17.974;2023-03-19T06:01:24;101160.72;;;3.34;100.00
71476;BME280;59286;59.274;17.974;2023-03-19T06:03:50;101155.44;;;3.29;100.00
71476;BME280;59286;59.274;17.974;2023-03-19T06:06:15;101174.31;;;3.41;100.00
71476;BME280;59286;59.274;17.974;2023-03-19T06:08:41;101164.50;;;3.43;100.00
71476;BME280;59286;59.274;17.974;2023-03-19T06:11:07;101167.88;;;3.43;100.00
71476;BME280;59286;59.274;17.974;2023-03-19T06:13:33;101173.59;;;3.45;100.00
71476;BME280;59286;59.274;17.974;2023-03-19T06:15:59;101171.50;;;3.42;100.00
71476;BME280;59286;59.274;17.974;2023-03-19T06:18:25;101175.28;;;3.51;100.00
71476;BME280;59286;59.274;17.974;2023-03-19T06:20:50;101170.88;;;3.52;100.00
71476;BME280;59286;59.274;17.974;2023-03-19T06:23:16;101172.00;;;3.56;100.00
71476;BME280;59286;59.274;17.974;2023-03-19T06:25:41;101178.28;;;3.60;100.00
71476;BME280;59286;59.274;17.974;2023-03-19T06:28:07;101187.31;;;3.57;100.00
71476;BME280;59286;59.274;17.974;2023-03-19T06:30:32;101179.47;;;3.52;100.00
71476;BME280;59286;59.274;17.974;2023-03-19T06:32:58;101187.31;;;3.57;100.00
71476;BME280;59286;59.274;17.974;2023-03-19T06:35:23;101183.91;;;3.57;100.00
71476;BME280;59286;59.274;17.974;2023-03-19T06:37:49;101181.19;;;3.63;100.00
71476;BME280;59286;59.274;17.974;2023-03-19T06:40:15;101184.50;;;3.75;100.00
71476;BME280;59286;59.274;17.974;2023-03-19T06:42:44;101186.47;;;3.85;100.00
71476;BME280;59286;59.274;17.974;2023-03-19T06:45:11;101188.50;;;3.83;100.00
71476;BME280;59286;59.274;17.974;2023-03-19T06:47:36;101186.63;;;3.78;100.00
71476;BME280;59286;59.274;17.974;2023-03-19T06:50:01;101187.25;;;3.85;100.00
71476;BME280;59286;59.274;17.974;2023-03-19T06:52:27;101191.81;;;3.95;100.00
71476;BME280;59286;59.274;17.974;2023-03-19T06:54:52;101191.91;;;4.00;100.00
71476;BME280;59286;59.274;17.974;2023-03-19T06:57:18;101196.91;;;4.07;100.00
71476;BME280;59286;59.274;17.974;2023-03-19T06:59:43;101202.03;;;4.02;100.00
71476;BME280;59286;59.274;17.974;2023-03-19T07:02:10;101208.56;;;4.04;100.00
71476;BME280;59286;59.274;17.974;2023-03-19T07:04:36;101208.81;;;4.03;100.00
71476;BME280;59286;59.274;17.974;2023-03-19T07:07:01;101224.38;;;4.03;100.00
71476;BME280;59286;59.274;17.974;2023-03-19T07:09:27;101220.56;;;3.93;100.00
71476;BME280;59286;59.274;17.974;2023-03-19T07:11:52;101212.34;;;3.97;100.00
71476;BME280;59286;59.274;17.974;2023-03-19T07:14:17;101217.16;;;4.05;100.00
71476;BME280;59286;59.274;17.974;2023-03-19T07:16:43;101226.66;;;4.16;100.00
71476;BME280;59286;59.274;17.974;2023-03-19T07:19:08;101226.72;;;4.21;100.00
71476;BME280;59286;59.274;17.974;2023-03-19T07:21:34;101220.75;;;4.20;100.00
71476;BME280;59286;59.274;17.974;2023-03-19T07:24:00;101224.28;;;4.14;100.00
71476;BME280;59286;59.274;17.974;2023-03-19T07:26:25;101231.53;;;4.29;100.00
71476;BME280;59286;59.274;17.974;2023-03-19T07:28:50;101224.28;;;4.31;100.00
71476;BME280;59286;59.274;17.974;2023-03-19T07:31:15;101228.91;;;4.45;100.00
71476;BME280;59286;59.274;17.974;2023-03-19T07:33:41;101226.69;;;4.54;99.14
71476;BME280;59286;59.274;17.974;2023-03-19T07:36:07;101217.41;;;4.58;98.62
71476;BME280;59286;59.274;17.974;2023-03-19T07:38:32;101225.25;;;4.63;99.42
71476;BME280;59286;59.274;17.974;2023-03-19T07:40:58;101216.31;;;4.54;98.58
71476;BME280;59286;59.274;17.974;2023-03-19T07:43:23;101219.75;;;4.59;98.16
71476;BME280;59286;59.274;17.974;2023-03-19T07:45:48;101228.59;;;4.58;98.40
71476;BME280;59286;59.274;17.974;2023-03-19T07:48:14;101220.25;;;4.56;99.51
71476;BME280;59286;59.274;17.974;2023-03-19T07:50:39;101230.22;;;4.48;100.00
71476;BME280;59286;59.274;17.974;2023-03-19T07:53:05;101236.53;;;4.52;100.00
71476;BME280;59286;59.274;17.974;2023-03-19T07:55:30;101237.69;;;4.61;100.00
71476;BME280;59286;59.274;17.974;2023-03-19T07:57:55;101242.16;;;4.65;100.00
71476;BME280;59286;59.274;17.974;2023-03-19T08:00:21;101244.91;;;4.75;99.54
71476;BME280;59286;59.274;17.974;2023-03-19T08:02:46;101241.28;;;4.76;99.80
71476;BME280;59286;59.274;17.974;2023-03-19T08:05:12;101244.91;;;4.75;100.00
71476;BME280;59286;59.274;17.974;2023-03-19T08:07:37;101233.44;;;4.71;100.00
71476;BME280;59286;59.274;17.974;2023-03-19T08:10:03;101246.63;;;4.86;99.18
71476;BME280;59286;59.274;17.974;2023-03-19T08:12:29;101252.13;;;4.90;99.19
71476;BME280;59286;59.274;17.974;2023-03-19T08:14:56;101238.34;;;4.89;97.41
71476;BME280;59286;59.274;17.974;2023-03-19T08:17:21;101233.69;;;4.91;97.76
71476;BME280;59286;59.274;17.974;2023-03-19T08:19:46;101224.25;;;4.85;97.38
71476;BME280;59286;59.274;17.974;2023-03-19T08:22:12;101250.06;;;4.92;97.91
71476;BME280;59286;59.274;17.974;2023-03-19T08:24:37;101236.38;;;4.80;98.74
71476;BME280;59286;59.274;17.974;2023-03-19T08:27:02;101250.53;;;4.89;99.10
71476;BME280;59286;59.274;17.974;2023-03-19T08:29:28;101240.31;;;4.82;98.99
71476;BME280;59286;59.274;17.974;2023-03-19T08:31:54;101243.97;;;5.03;99.21
71476;BME280;59286;59.274;17.974;2023-03-19T08:34:21;101243.91;;;5.20;98.95
71476;BME280;59286;59.274;17.974;2023-03-19T08:36:47;101249.53;;;5.33;97.29
71476;BME280;59286;59.274;17.974;2023-03-19T08:39:12;101242.06;;;5.42;97.18
71476;BME280;59286;59.274;17.974;2023-03-19T08:41:38;101248.41;;;5.51;97.10
71476;BME280;59286;59.274;17.974;2023-03-19T08:44:03;101248.03;;;5.64;95.18
71476;BME280;59286;59.274;17.974;2023-03-19T08:46:29;101243.88;;;5.41;95.37
71476;BME280;59286;59.274;17.974;2023-03-19T08:48:54;101246.31;;;5.48;96.05
71476;BME280;59286;59.274;17.974;2023-03-19T08:51:20;101246.56;;;5.46;94.15
71476;BME280;59286;59.274;17.974;2023-03-19T08:53:45;101244.97;;;5.45;93.77
71476;BME280;59286;59.274;17.974;2023-03-19T08:56:11;101255.94;;;5.52;93.29
71476;BME280;59286;59.274;17.974;2023-03-19T08:58:36;101252.03;;;5.50;92.93
71476;BME280;59286;59.274;17.974;2023-03-19T09:01:07;101259.84;;;5.50;94.71
71476;BME280;59286;59.274;17.974;2023-03-19T09:03:34;101263.75;;;5.52;94.60
71476;BME280;59286;59.274;17.974;2023-03-19T09:06:01;101258.09;;;5.55;93.73
71476;BME280;59286;59.274;17.974;2023-03-19T09:08:27;101262.59;;;5.65;93.33
71476;BME280;59286;59.274;17.974;2023-03-19T09:10:54;101269.03;;;5.57;94.55
71476;BME280;59286;59.274;17.974;2023-03-19T09:13:20;101268.47;;;5.55;95.18
71476;BME280;59286;59.274;17.974;2023-03-19T09:15:45;101269.63;;;5.64;94.52
71476;BME280;59286;59.274;17.974;2023-03-19T09:18:11;101261.38;;;5.72;93.63
71476;BME280;59286;59.274;17.974;2023-03-19T09:20:36;101265.50;;;5.68;94.18
71476;BME280;59286;59.274;17.974;2023-03-19T09:23:01;101265.03;;;5.76;93.95
71476;BME280;59286;59.274;17.974;2023-03-19T09:25:27;101254.34;;;5.73;93.38
71476;BME280;59286;59.274;17.974;2023-03-19T09:27:52;101265.59;;;5.78;92.19
71476;BME280;59286;59.274;17.974;2023-03-19T09:30:18;101257.16;;;5.66;92.86
71476;BME280;59286;59.274;17.974;2023-03-19T09:32:43;101258.53;;;5.74;93.14
71476;BME280;59286;59.274;17.974;2023-03-19T09:35:09;101262.09;;;5.68;94.64
71476;BME280;59286;59.274;17.974;2023-03-19T09:37:34;101265.59;;;5.78;93.61
71476;BME280;59286;59.274;17.974;2023-03-19T09:40:00;101268.06;;;5.90;93.97
71476;BME280;59286;59.274;17.974;2023-03-19T09:45:15;101273.09;;;5.97;93.03
71476;BME280;59286;59.274;17.974;2023-03-19T09:47:42;101277.78;;;6.00;93.74
71476;BME280;59286;59.274;17.974;2023-03-19T09:50:34;101277.25;;;5.98;91.96
71476;BME280;59286;59.274;17.974;2023-03-19T09:53:07;101270.00;;;6.05;91.99
71476;BME280;59286;59.274;17.974;2023-03-19T09:55:51;101272.22;;;6.18;91.95
71476;BME280;59286;59.274;17.974;2023-03-19T09:58:21;101285.22;;;6.18;91.30
71476;BME280;59286;59.274;17.974;2023-03-19T10:00:51;101276.94;;;6.21;91.43
71476;BME280;59286;59.274;17.974;2023-03-19T10:06:24;101275.44;;;6.30;91.50
71476;BME280;59286;59.274;17.974;2023-03-19T10:17:57;101278.91;;;6.40;90.89
71476;BME280;59286;59.274;17.974;2023-03-19T10:25:42;101276.31;;;6.45;91.12
71476;BME280;59286;59.274;17.974;2023-03-19T10:28:16;101271.88;;;6.41;90.77
71476;BME280;59286;59.274;17.974;2023-03-19T10:30:52;101269.00;;;6.37;91.54
71476;BME280;59286;59.274;17.974;2023-03-19T10:33:24;101277.63;;;6.43;91.14
71476;BME280;59286;59.274;17.974;2023-03-19T10:35:59;101278.63;;;6.37;90.85
71476;BME280;59286;59.274;17.974;2023-03-19T10:38:26;101276.56;;;6.44;90.55
71476;BME280;59286;59.274;17.974;2023-03-19T10:41:15;101277.06;;;6.36;90.98
71476;BME280;59286;59.274;17.974;2023-03-19T10:43:52;101275.19;;;6.31;91.99
71476;BME280;59286;59.274;17.974;2023-03-19T10:46:18;101281.66;;;6.29;94.57
71476;BME280;59286;59.274;17.974;2023-03-19T10:48:46;101291.63;;;6.37;93.86
71476;BME280;59286;59.274;17.974;2023-03-19T10:51:17;101289.13;;;6.47;92.08
71476;BME280;59286;59.274;17.974;2023-03-19T10:53:45;101286.09;;;6.60;91.60
71476;BME280;59286;59.274;17.974;2023-03-19T10:56:23;101292.81;;;6.56;90.99
71476;BME280;59286;59.274;17.974;2023-03-19T10:58:59;101293.78;;;6.45;92.07
71476;BME280;59286;59.274;17.974;2023-03-19T11:01:27;101294.03;;;6.43;92.58
71476;BME280;59286;59.274;17.974;2023-03-19T11:04:00;101287.53;;;6.46;92.62
71476;BME280;59286;59.274;17.974;2023-03-19T11:06:31;101292.75;;;6.46;92.73
71476;BME280;59286;59.274;17.974;2023-03-19T11:14:13;101285.28;;;6.54;93.40
71476;BME280;59286;59.274;17.974;2023-03-19T11:17:06;101288.69;;;6.60;93.45
71476;BME280;59286;59.274;17.974;2023-03-19T11:19:41;101292.31;;;6.59;93.20
71476;BME280;59286;59.274;17.974;2023-03-19T11:22:15;101292.31;;;6.59;93.63
71476;BME280;59286;59.274;17.974;2023-03-19T11:24:48;101289.16;;;6.57;92.97
71476;BME280;59286;59.274;17.974;2023-03-19T11:27:13;101279.28;;;6.59;93.34
71476;BME280;59286;59.274;17.974;2023-03-19T11:29:43;101278.19;;;6.50;93.19
71476;BME280;59286;59.274;17.974;2023-03-19T11:35:24;101268.75;;;6.44;93.69
71476;BME280;59286;59.274;17.974;2023-03-19T11:37:59;101266.41;;;6.42;94.30
71476;BME280;59286;59.274;17.974;2023-03-19T11:41:42;101256.25;;;6.41;94.31
71476;BME280;59286;59.274;17.974;2023-03-19T11:46:47;101256.28;;;6.46;93.75
71476;BME280;59286;59.274;17.974;2023-03-19T11:49:42;101259.16;;;6.49;93.92
71476;BME280;59286;59.274;17.974;2023-03-19T11:52:17;101261.84;;;6.59;93.48
71476;BME280;59286;59.274;17.974;2023-03-19T12:03:05;101256.00;;;6.84;91.85
71476;BME280;59286;59.274;17.974;2023-03-19T12:05:50;101252.41;;;6.95;91.78
71476;BME280;59286;59.274;17.974;2023-03-19T12:08:30;101250.84;;;6.94;91.77
71476;BME280;59286;59.274;17.974;2023-03-19T12:11:15;101250.63;;;7.06;91.97
71476;BME280;59286;59.274;17.974;2023-03-19T12:19:14;101241.94;;;6.90;93.30
71476;BME280;59286;59.274;17.974;2023-03-19T12:35:19;101233.72;;;7.08;93.36
71476;BME280;59286;59.274;17.974;2023-03-19T12:38:08;101231.09;;;7.13;92.85
71476;BME280;59286;59.274;17.974;2023-03-19T12:40:40;101215.19;;;7.10;93.23
71476;BME280;59286;59.274;17.974;2023-03-19T12:43:35;101231.34;;;7.07;92.95
71476;BME280;59286;59.274;17.974;2023-03-19T12:48:37;101225.34;;;7.06;93.85
71476;BME280;59286;59.274;17.974;2023-03-19T12:51:08;101228.03;;;7.21;93.23
71476;BME280;59286;59.274;17.974;2023-03-19T12:53:46;101215.00;;;7.26;92.43
71476;BME280;59286;59.274;17.974;2023-03-19T13:01:42;101213.47;;;7.45;90.51
71476;BME280;59286;59.274;17.974;2023-03-19T13:04:30;101213.47;;;7.45;91.38
71476;BME280;59286;59.274;17.974;2023-03-19T13:07:03;101207.22;;;7.41;90.88
71476;BME280;59286;59.274;17.974;2023-03-19T13:09:43;101205.66;;;7.45;90.70
71476;BME280;59286;59.274;17.974;2023-03-19T13:12:17;101205.38;;;7.47;90.36
71476;BME280;59286;59.274;17.974;2023-03-19T13:17:39;101206.44;;;7.51;90.51
71476;BME280;59286;59.274;17.974;2023-03-19T13:20:19;101210.34;;;7.53;90.27
71476;BME280;59286;59.274;17.974;2023-03-19T13:22:54;101208.03;;;7.62;90.64
71476;BME280;59286;59.274;17.974;2023-03-19T13:25:26;101210.91;;;7.65;90.36
71476;BME280;59286;59.274;17.974;2023-03-19T13:27:55;101199.41;;;7.56;89.85
71476;BME280;59286;59.274;17.974;2023-03-19T13:30:22;101209.59;;;7.53;90.45
71476;BME280;59286;59.274;17.974;2023-03-19T13:32:50;101200.69;;;7.49;90.52
71476;BME280;59286;59.274;17.974;2023-03-19T13:35:27;101199.38;;;7.36;91.23
71476;BME280;59286;59.274;17.974;2023-03-19T13:38:02;101191.28;;;7.38;90.91
71476;BME280;59286;59.274;17.974;2023-03-19T13:43:02;101202.00;;;7.36;90.68
71476;BME280;59286;59.274;17.974;2023-03-19T13:45:34;101196.78;;;7.36;91.28
71476;BME280;59286;59.274;17.974;2023-03-19T13:48:34;101199.63;;;7.35;90.84
71476;BME280;59286;59.274;17.974;2023-03-19T13:51:20;101197.81;;;7.40;91.12
71476;BME280;59286;59.274;17.974;2023-03-19T13:54:11;101200.69;;;7.44;90.90
71476;BME280;59286;59.274;17.974;2023-03-19T13:59:38;101196.25;;;7.44;91.21
71476;BME280;59286;59.274;17.974;2023-03-19T14:05:00;101196.81;;;7.51;91.09
71476;BME280;59286;59.274;17.974;2023-03-19T14:07:32;101195.75;;;7.57;90.60
71476;BME280;59286;59.274;17.974;2023-03-19T14:12:35;101177.75;;;7.76;89.74